Etusivu
METAR-TAF:

METAR-TAF

Lentoasemat :

Langlade County Airport

Antigo, Wisconsin, Yhdysvallat

Leveyspiiri: 45-09-15N, Pituuspiiri: 89-06-39W, korkeus merenpinnasta: 464 m

Tämänhetkinen sää

Tämä raportti tehtiin 7 minuuttia sitten, kello 09.15 UTC
Tuuli 8 kn pohjoisen/luoteesta
Lämpötila -3°C
Kosteus 100%
Ilmanpaine 1008 hPa
Näkyvyys: 3.2 km
Pilvistä 1900 ft:n korkeudessa
heikkoa lumisadetta

METAR: KAIG 180915Z AUTO 33008KT 2SM -SN OVC019 M03/M03 A2976 RMK AO2 P0002 T10311035

Aika: 03:22 (09:22 UTC)


TAF: puuttuu

Säähavainnot ja -ennusteet yli 4000 lentoasemalta (METAR- ja TAF-raportit).

Käytössä olevat sääasemat on merkitty karttaan keltaisilla ja punaisilla pisteillä.

Aseta hiiri pisteen päälle nähdäksesi sääaseman nimen.

Klikkaa sitten nähdäksesi säähavainnot ja -ennusteet.

Kartan vaihtaminen: klikkaa mustalla rastilla varustettuja vihreitä pisteitä, niin voit zoomata sisään; viivalla varustettua vihreää pistettä, niin voit zoomata ulos tai vihreitä nuolia, niin pääset viereisille kartoille.


METAR-TAF: